Time;durP1;ratioP1;P1;durP2;ratioP2;P2;SDS_P1;SDS_P2;PMS_P1;PMS_P2;Temp;Humidity;BMP_temperature;BMP_pressure;BME280_temperature;BME280_humidity;BME280_pressure;Samples;Min_cycle;Max_cycle;Signal;HPM_P1;HPM_P2
2023/10/10 00:00:49;;;;;;;8.65;2.63;;;;;;;16.73;100.00;96819.28;5035841;28;20814;-69
2023/10/10 00:03:18;;;;;;;3.78;2.20;;;;;;;16.65;100.00;96819.47;5034908;28;20228;-69
2023/10/10 00:05:45;;;;;;;6.05;2.67;;;;;;;16.54;100.00;96825.34;5035656;28;20292;-69
2023/10/10 00:08:11;;;;;;;4.43;2.28;;;;;;;16.49;100.00;96821.66;5035217;28;20201;-69
2023/10/10 00:10:45;;;;;;;4.13;2.08;;;;;;;16.56;100.00;96819.84;5035860;28;20331;-69
2023/10/10 00:13:12;;;;;;;6.78;2.88;;;;;;;16.35;100.00;96825.28;5035023;28;20325;-69
2023/10/10 00:15:49;;;;;;;5.13;2.75;;;;;;;16.59;100.00;96819.44;5034953;28;20971;-69
2023/10/10 00:18:20;;;;;;;4.57;2.58;;;;;;;16.50;100.00;96815.31;5035169;28;20261;-69
2023/10/10 00:21:04;;;;;;;5.65;2.70;;;;;;;16.36;100.00;96824.25;5035302;28;20291;-69
2023/10/10 00:23:34;;;;;;;5.63;2.28;;;;;;;16.18;100.00;96817.81;5035668;28;20263;-69
2023/10/10 00:26:01;;;;;;;3.78;2.33;;;;;;;16.22;100.00;96811.88;5035231;28;20244;-69
2023/10/10 00:28:33;;;;;;;6.25;2.38;;;;;;;16.18;100.00;96813.31;5034525;28;20221;-69
2023/10/10 00:31:03;;;;;;;9.50;2.97;;;;;;;16.15;100.00;96796.91;5035819;28;20212;-69
2023/10/10 00:33:31;;;;;;;5.57;2.85;;;;;;;16.34;100.00;96807.66;5035627;28;20306;-69
2023/10/10 00:35:59;;;;;;;7.45;2.80;;;;;;;16.12;100.00;96808.75;5035167;28;20924;-69
2023/10/10 00:38:26;;;;;;;8.13;2.65;;;;;;;16.07;100.00;96808.53;5034231;28;20201;-69
2023/10/10 00:40:54;;;;;;;6.43;3.08;;;;;;;16.02;100.00;96800.31;5036334;28;20221;-69
2023/10/10 00:43:23;;;;;;;9.10;2.67;;;;;;;15.96;100.00;96798.47;5035304;28;20618;-69
2023/10/10 00:45:53;;;;;;;5.93;2.35;;;;;;;16.03;100.00;96801.97;5035388;28;20201;-69
2023/10/10 00:48:22;;;;;;;6.53;1.98;;;;;;;16.05;100.00;96817.72;5037172;28;20207;-69
2023/10/10 00:50:53;;;;;;;6.85;2.42;;;;;;;15.96;100.00;96809.09;5039271;28;20291;-69
2023/10/10 00:53:21;;;;;;;6.95;2.58;;;;;;;15.86;100.00;96813.94;5038672;28;20221;-69
2023/10/10 00:55:55;;;;;;;12.75;3.05;;;;;;;15.63;100.00;96817.88;5038780;28;20221;-69
2023/10/10 00:58:24;;;;;;;9.05;2.10;;;;;;;15.64;100.00;96818.69;5037927;28;20201;-69
2023/10/10 01:00:54;;;;;;;7.05;2.25;;;;;;;15.60;100.00;96812.13;5038544;28;20686;-69
2023/10/10 01:03:23;;;;;;;4.30;2.30;;;;;;;15.52;100.00;96814.94;5038566;28;20233;-69
2023/10/10 01:05:55;;;;;;;4.00;1.98;;;;;;;15.59;100.00;96815.78;5038693;28;20201;-69
2023/10/10 01:08:26;;;;;;;3.72;2.10;;;;;;;15.43;100.00;96818.75;5037988;28;20255;-69
2023/10/10 01:10:56;;;;;;;7.93;2.28;;;;;;;15.32;100.00;96808.66;5038747;28;20205;-69
2023/10/10 01:13:23;;;;;;;7.93;2.35;;;;;;;15.32;100.00;96806.84;5038098;28;20720;-69
2023/10/10 01:15:56;;;;;;;6.72;2.78;;;;;;;15.21;100.00;96806.53;5038348;28;20231;-69
2023/10/10 01:18:24;;;;;;;5.30;2.33;;;;;;;15.19;100.00;96800.53;5037678;28;20266;-69
2023/10/10 01:20:53;;;;;;;6.05;2.03;;;;;;;15.29;100.00;96803.72;5039011;28;20201;-69
2023/10/10 01:23:26;;;;;;;8.10;2.67;;;;;;;15.15;100.00;96812.56;5037559;28;20221;-69
2023/10/10 01:25:55;;;;;;;4.55;1.90;;;;;;;15.17;100.00;96802.56;5038633;28;20204;-69
2023/10/10 01:28:33;;;;;;;7.68;2.58;;;;;;;15.14;100.00;96799.47;5037758;28;20204;-69
2023/10/10 01:31:03;;;;;;;6.50;2.30;;;;;;;15.14;100.00;96807.44;5038675;28;20358;-69
2023/10/10 01:33:37;;;;;;;6.93;2.40;;;;;;;15.02;100.00;96793.88;5038305;28;20320;-69
2023/10/10 01:36:11;;;;;;;4.30;1.70;;;;;;;15.06;100.00;96795.13;5037816;28;21179;-69
2023/10/10 01:39:07;;;;;;;6.68;1.83;;;;;;;15.20;100.00;96788.91;5037013;28;20201;-69
2023/10/10 01:41:38;;;;;;;5.88;1.95;;;;;;;14.89;100.00;96788.44;5037378;28;20250;-69
2023/10/10 01:44:12;;;;;;;8.98;2.40;;;;;;;14.97;100.00;96784.81;5038385;28;20293;-69
2023/10/10 01:46:40;;;;;;;5.72;2.30;;;;;;;14.86;100.00;96788.00;5037799;28;21143;-70
2023/10/10 01:49:12;;;;;;;6.15;1.98;;;;;;;14.88;100.00;96786.78;5037160;28;20216;-69
2023/10/10 01:51:42;;;;;;;6.20;2.55;;;;;;;15.00;100.00;96785.25;5038273;28;20231;-69
2023/10/10 01:54:14;;;;;;;2.40;1.67;;;;;;;14.90;100.00;96783.94;5037013;28;20316;-69
2023/10/10 01:56:42;;;;;;;6.45;2.55;;;;;;;14.79;100.00;96782.63;5037657;28;20260;-69
2023/10/10 01:59:13;;;;;;;6.13;2.35;;;;;;;14.64;100.00;96784.50;5036137;28;20205;-69
2023/10/10 02:01:40;;;;;;;4.88;2.15;;;;;;;14.65;100.00;96778.19;5037503;28;20241;-69
2023/10/10 02:04:07;;;;;;;5.70;2.35;;;;;;;14.44;100.00;96792.44;5036304;28;20209;-69
2023/10/10 02:06:35;;;;;;;6.53;2.65;;;;;;;14.53;100.00;96778.06;5038112;28;20304;-69
2023/10/10 02:09:11;;;;;;;4.88;2.05;;;;;;;14.67;100.00;96778.81;5036776;28;20694;-69
2023/10/10 02:11:42;;;;;;;6.57;2.05;;;;;;;14.56;100.00;96777.69;5035447;28;20197;-69
2023/10/10 02:14:11;;;;;;;4.78;1.77;;;;;;;14.51;100.00;96778.25;5036971;28;20215;-69
2023/10/10 02:16:40;;;;;;;9.18;2.53;;;;;;;14.53;100.00;96784.19;5037305;28;20225;-69
2023/10/10 02:19:15;;;;;;;6.43;2.42;;;;;;;14.54;100.00;96782.38;5036648;28;20283;-69
2023/10/10 02:21:47;;;;;;;6.55;2.42;;;;;;;14.59;100.00;96782.59;5036874;28;20213;-69
2023/10/10 02:24:36;;;;;;;7.50;2.20;;;;;;;14.67;100.00;96773.50;5037332;28;20213;-69
2023/10/10 02:27:05;;;;;;;5.35;2.20;;;;;;;14.58;100.00;96780.97;5036672;28;20667;-68
2023/10/10 02:29:35;;;;;;;6.78;2.42;;;;;;;14.62;100.00;96776.94;5037075;28;20205;-68
2023/10/10 02:32:09;;;;;;;7.37;1.93;;;;;;;14.63;100.00;96780.19;5037231;28;20221;-68
2023/10/10 02:34:36;;;;;;;7.50;2.33;;;;;;;14.63;100.00;96780.19;5036838;28;20262;-68
2023/10/10 02:37:14;;;;;;;6.63;3.00;;;;;;;14.61;100.00;96777.94;5036429;28;20221;-69
2023/10/10 02:39:48;;;;;;;7.82;2.10;;;;;;;14.69;100.00;96776.00;5036823;28;20287;-68
2023/10/10 02:42:19;;;;;;;9.93;2.60;;;;;;;14.55;100.00;96778.69;5036267;28;20221;-68
2023/10/10 02:44:52;;;;;;;4.72;2.55;;;;;;;14.61;100.00;96777.94;5037034;28;20603;-69
2023/10/10 02:47:30;;;;;;;6.40;2.90;;;;;;;14.60;100.00;96782.44;5035693;28;20208;-69
2023/10/10 02:50:00;;;;;;;6.60;2.63;;;;;;;14.56;100.00;96778.50;5036064;28;20201;-68
2023/10/10 02:52:28;;;;;;;5.97;2.08;;;;;;;14.44;100.00;96781.84;5036800;28;20232;-68
2023/10/10 02:54:56;;;;;;;7.93;2.67;;;;;;;14.53;100.00;96776.22;5036669;28;20205;-69
2023/10/10 02:57:27;;;;;;;6.57;2.95;;;;;;;14.39;100.00;96770.97;5035247;28;20940;-69
2023/10/10 02:59:59;;;;;;;8.07;2.95;;;;;;;14.41;100.00;96767.13;5036471;28;20204;-68
2023/10/10 03:02:30;;;;;;;5.77;3.00;;;;;;;14.41;100.00;96777.72;5036620;28;20239;-69
2023/10/10 03:05:14;;;;;;;4.22;2.20;;;;;;;14.49;100.00;96776.81;5036133;28;20209;-68
2023/10/10 03:07:42;;;;;;;7.73;2.20;;;;;;;14.31;100.00;96779.84;5035496;28;20197;-69
2023/10/10 03:10:41;;;;;;;4.72;2.15;;;;;;;14.50;100.00;96781.06;5037149;28;20201;-68
2023/10/10 03:13:27;;;;;;;4.25;2.70;;;;;;;14.38;100.00;96783.38;5036044;28;20225;-69
2023/10/10 03:15:56;;;;;;;8.50;1.98;;;;;;;14.37;100.00;96780.94;5035931;28;20209;-69
2023/10/10 03:18:29;;;;;;;4.70;2.50;;;;;;;14.46;100.00;96777.16;5036173;28;20229;-69
2023/10/10 03:21:23;;;;;;;9.77;3.22;;;;;;;14.52;100.00;96781.72;5036229;28;20205;-69
2023/10/10 03:24:06;;;;;;;8.82;3.53;;;;;;;14.45;100.00;96781.66;5036474;28;20339;-69
2023/10/10 03:29:26;;;;;;;5.43;2.57;;;;;;;14.74;100.00;96782.38;5035463;28;20207;-68
2023/10/10 03:31:56;;;;;;;7.43;3.20;;;;;;;14.64;100.00;96786.34;5035423;28;20225;-68
2023/10/10 03:34:33;;;;;;;11.93;3.00;;;;;;;14.70;100.00;96781.09;5036143;28;20296;-68
2023/10/10 03:37:19;;;;;;;7.53;2.73;;;;;;;14.74;100.00;96779.72;5035297;28;20316;-68
2023/10/10 03:39:54;;;;;;;11.50;3.00;;;;;;;14.79;100.00;96787.94;5036532;28;20293;-68
2023/10/10 05:24:08;;;;;;;6.70;3.10;;;;;;;14.11;100.00;96773.47;5038368;28;20949;-69
2023/10/10 05:26:46;;;;;;;13.20;3.65;;;;;;;14.10;100.00;96773.69;5038187;28;21418;-69
2023/10/10 05:29:12;;;;;;;7.67;3.33;;;;;;;14.00;100.00;96787.19;5037692;28;20201;-69
2023/10/10 05:31:39;;;;;;;8.97;3.07;;;;;;;14.00;100.00;96789.00;5037306;28;20201;-69
2023/10/10 05:34:07;;;;;;;5.18;2.28;;;;;;;13.87;100.00;96793.31;5037334;28;20671;-69
2023/10/10 05:36:35;;;;;;;5.60;2.63;;;;;;;13.95;100.00;96790.56;5037781;28;20209;-69
2023/10/10 05:39:01;;;;;;;9.30;3.00;;;;;;;13.66;100.00;96786.13;5037498;28;20197;-69
2023/10/10 05:41:28;;;;;;;11.60;3.07;;;;;;;13.78;100.00;96795.22;5037980;28;20213;-69
2023/10/10 05:43:59;;;;;;;4.93;2.60;;;;;;;13.84;100.00;96796.34;5037748;28;20287;-69
2023/10/10 05:46:25;;;;;;;10.73;3.97;;;;;;;13.92;100.00;96796.25;5038133;28;20235;-69
2023/10/10 05:48:52;;;;;;;8.47;2.60;;;;;;;13.93;100.00;96798.72;5037138;28;20258;-69
2023/10/10 05:51:18;;;;;;;10.10;2.83;;;;;;;13.97;100.00;96801.81;5037944;28;20576;-69
2023/10/10 05:53:47;;;;;;;5.73;2.23;;;;;;;14.16;100.00;96796.81;5037837;28;20229;-69
2023/10/10 05:56:13;;;;;;;12.27;2.83;;;;;;;14.05;100.00;96797.22;5036414;28;20205;-69
2023/10/10 05:58:42;;;;;;;5.47;2.17;;;;;;;14.17;100.00;96798.44;5035067;28;20951;-69
2023/10/10 06:01:12;;;;;;;3.93;2.23;;;;;;;14.16;100.00;96799.44;5036053;28;20233;-69
2023/10/10 06:03:39;;;;;;;5.17;2.57;;;;;;;14.18;100.00;96795.59;5035332;28;20221;-69
2023/10/10 06:06:05;;;;;;;6.47;2.90;;;;;;;14.16;100.00;96802.09;5036549;28;20209;-69
2023/10/10 06:08:32;;;;;;;12.63;4.03;;;;;;;14.20;100.00;96795.41;5035179;28;20208;-69
2023/10/10 06:11:00;;;;;;;14.37;3.27;;;;;;;14.42;100.00;96797.09;5037149;28;20214;-69
2023/10/10 06:13:29;;;;;;;4.93;2.70;;;;;;;14.17;100.00;96795.81;5037137;28;20233;-69
2023/10/10 06:15:55;;;;;;;7.93;2.53;;;;;;;14.20;100.00;96796.22;5037584;28;20197;-69
2023/10/10 06:18:23;;;;;;;9.67;2.47;;;;;;;14.30;100.00;96793.31;5035526;28;20225;-69
2023/10/10 06:20:50;;;;;;;5.80;2.43;;;;;;;14.37;100.00;96802.13;5035595;28;20197;-69
2023/10/10 06:23:17;;;;;;;8.43;3.05;;;;;;;14.48;100.00;96801.66;5035628;28;20224;-69
2023/10/10 06:25:45;;;;;;;8.60;2.80;;;;;;;14.63;100.00;96807.75;5036546;28;20197;-69
2023/10/10 06:28:23;;;;;;;4.93;2.17;;;;;;;14.72;100.00;96807.44;5034364;28;20669;-69
2023/10/10 06:30:53;;;;;;;8.43;2.67;;;;;;;14.74;100.00;96808.91;5036167;28;20201;-69
2023/10/10 06:33:27;;;;;;;4.55;2.60;;;;;;;14.73;100.00;96809.91;5034782;28;21072;-69
2023/10/10 06:36:01;;;;;;;5.23;3.03;;;;;;;14.81;100.00;96812.44;5035269;28;20570;-69
2023/10/10 06:38:28;;;;;;;10.90;2.67;;;;;;;14.81;100.00;96812.44;5033636;28;20703;-69
2023/10/10 06:40:55;;;;;;;7.95;2.88;;;;;;;14.85;100.00;96811.03;5034759;28;20685;-69
2023/10/10 06:43:24;;;;;;;10.10;3.55;;;;;;;15.09;100.00;96810.66;5033211;28;21564;-69
2023/10/10 06:45:54;;;;;;;10.40;3.30;;;;;;;15.00;100.00;96811.81;5033628;28;20247;-69
2023/10/10 06:48:22;;;;;;;14.38;3.30;;;;;;;15.17;100.00;96817.66;5032344;28;20193;-69
2023/10/10 06:50:50;;;;;;;7.18;2.45;;;;;;;15.23;100.00;96812.44;5035134;28;20718;-69
2023/10/10 06:53:28;;;;;;;10.80;3.73;;;;;;;15.31;100.00;96817.63;5033690;28;20735;-69
2023/10/10 06:55:55;;;;;;;12.10;3.50;;;;;;;15.44;100.00;96821.22;5036315;28;20231;-69
2023/10/10 06:58:23;;;;;;;8.50;3.65;;;;;;;15.73;100.00;96820.19;5035774;28;20228;-70
2023/10/10 07:00:53;;;;;;;11.45;3.85;;;;;;;15.70;100.00;96817.94;5035591;28;20209;-70
2023/10/10 07:03:30;;;;;;;9.25;4.35;;;;;;;15.76;100.00;96825.09;5035615;28;21021;-69
2023/10/10 07:05:57;;;;;;;8.93;3.20;;;;;;;15.94;100.00;96827.06;5036142;28;20212;-69
2023/10/10 07:08:25;;;;;;;8.65;3.63;;;;;;;16.11;100.00;96825.72;5032153;28;20212;-69
2023/10/10 07:10:53;;;;;;;6.85;3.40;;;;;;;16.31;100.00;96826.69;5034491;28;20205;-69
2023/10/10 07:13:27;;;;;;;7.40;3.72;;;;;;;16.40;100.00;96822.03;5034909;28;21066;-69
2023/10/10 07:15:56;;;;;;;10.15;3.47;;;;;;;16.63;100.00;96829.47;5034407;28;20200;-69
2023/10/10 07:18:23;;;;;;;9.90;4.00;;;;;;;16.58;100.00;96828.44;5035916;28;20228;-69
2023/10/10 07:21:08;;;;;;;10.15;3.90;;;;;;;16.67;100.00;96830.72;5034970;28;20201;-69
2023/10/10 07:23:41;;;;;;;8.88;3.40;;;;;;;16.76;100.00;96826.88;5035068;28;20260;-69
2023/10/10 07:26:18;;;;;;;9.77;3.35;;;;;;;16.76;100.00;96839.34;5034686;28;20212;-69
2023/10/10 07:28:48;;;;;;;10.65;3.60;;;;;;;16.66;100.00;96826.44;5036205;28;20200;-69
2023/10/10 07:31:20;;;;;;;7.35;3.40;;;;;;;16.93;100.00;96837.94;5033811;28;20204;-70
2023/10/10 07:33:54;;;;;;;8.13;3.30;;;;;;;16.84;100.00;96836.50;5034036;28;20217;-69
2023/10/10 07:36:24;;;;;;;7.97;3.58;;;;;;;16.91;100.00;96840.81;5034406;28;20217;-69
2023/10/10 07:39:04;;;;;;;10.95;3.00;;;;;;;17.29;100.00;96833.97;5033461;28;20271;-70
2023/10/10 07:41:33;;;;;;;5.55;3.45;;;;;;;17.20;100.00;96843.13;5033769;28;20209;-69
2023/10/10 07:44:00;;;;;;;7.22;3.70;;;;;;;17.28;100.00;96832.31;5034129;28;20231;-69
2023/10/10 07:46:35;;;;;;;11.52;3.75;;;;;;;17.29;100.00;96840.09;5034004;28;20235;-69
2023/10/10 07:49:02;;;;;;;8.70;3.78;;;;;;;17.22;100.00;96847.25;5033552;28;20609;-69
2023/10/10 07:51:29;;;;;;;11.90;3.05;;;;;;;17.30;100.00;96836.41;5034007;28;20699;-69
2023/10/10 07:54:12;;;;;;;9.35;3.40;;;;;;;17.59;100.00;96841.34;5033508;28;20205;-69
2023/10/10 07:56:45;;;;;;;8.00;3.45;;;;;;;17.43;100.00;96835.59;5033738;28;20576;-70
2023/10/10 07:59:12;;;;;;;14.55;4.60;;;;;;;17.59;100.00;96841.34;5035645;28;20271;-69
2023/10/10 08:01:41;;;;;;;8.55;3.75;;;;;;;17.88;100.00;96847.06;5037413;28;20205;-70
2023/10/10 08:04:08;;;;;;;6.93;3.10;;;;;;;17.94;100.00;96846.22;5037530;28;20208;-70
2023/10/10 08:06:35;;;;;;;10.20;3.22;;;;;;;17.97;100.00;96842.31;5038057;28;20670;-69
2023/10/10 08:09:18;;;;;;;8.57;2.90;;;;;;;18.07;100.00;96840.84;5039067;28;20201;-70
2023/10/10 08:11:45;;;;;;;5.80;2.63;;;;;;;18.20;100.00;96848.06;5037108;28;20201;-70
2023/10/10 08:14:12;;;;;;;7.85;3.10;;;;;;;18.44;100.00;96842.84;5037824;28;21116;-69
2023/10/10 08:16:43;;;;;;;6.60;3.00;;;;;;;18.62;100.00;96842.97;5037904;28;20595;-69
2023/10/10 08:19:10;;;;;;;11.18;3.28;;;;;;;18.40;100.00;96853.13;5036863;28;20220;-69
2023/10/10 08:21:48;;;;;;;8.60;2.97;;;;;;;18.58;100.00;96849.78;5037601;28;20739;-70
2023/10/10 08:24:15;;;;;;;7.82;2.83;;;;;;;18.61;100.00;96844.84;5037551;28;20209;-70
2023/10/10 08:26:42;;;;;;;8.60;3.08;;;;;;;18.64;100.00;96841.75;5038478;28;20205;-69
2023/10/10 08:29:09;;;;;;;8.75;3.35;;;;;;;18.75;100.00;96849.09;5037450;28;20197;-69
2023/10/10 08:31:37;;;;;;;7.32;2.88;;;;;;;18.86;100.00;96845.75;5038984;28;20205;-70
2023/10/10 08:34:08;;;;;;;8.95;3.13;;;;;;;18.91;100.00;96850.47;5038108;28;20209;-70
2023/10/10 08:36:35;;;;;;;10.23;2.70;;;;;;;19.20;100.00;96842.72;5037498;28;20328;-70
2023/10/10 08:39:16;;;;;;;7.10;3.05;;;;;;;19.30;100.00;96846.53;5038217;28;20519;-70
2023/10/10 08:41:44;;;;;;;5.68;2.88;;;;;;;19.58;100.00;96845.09;5037898;28;20212;-70
2023/10/10 08:44:14;;;;;;;4.68;2.53;;;;;;;19.54;100.00;96839.56;5038187;28;20615;-69
2023/10/10 08:46:46;;;;;;;7.82;2.75;;;;;;;19.35;100.00;96848.59;5038579;28;20209;-69
2023/10/10 08:49:14;;;;;;;7.55;3.45;;;;;;;19.62;100.00;96842.81;5037236;28;20201;-69
2023/10/10 08:51:42;;;;;;;5.78;2.92;;;;;;;19.85;100.00;96849.19;5037377;28;20205;-69
2023/10/10 08:54:10;;;;;;;8.52;2.50;;;;;;;20.00;100.00;96852.38;5037052;28;20205;-70
2023/10/10 08:56:38;;;;;;;7.70;2.95;;;;;;;19.93;100.00;96854.28;5035308;28;20225;-69
2023/10/10 08:59:06;;;;;;;13.82;2.60;;;;;;;20.29;100.00;96847.13;5036500;28;20228;-70
2023/10/10 09:01:35;;;;;;;8.77;2.65;;;;;;;20.57;100.00;96847.44;5037323;28;20213;-70
2023/10/10 09:04:03;;;;;;;9.27;3.03;;;;;;;20.52;100.00;96843.78;5036256;28;21329;-69
2023/10/10 09:06:43;;;;;;;11.63;2.58;;;;;;;20.89;100.00;96847.06;5036857;28;20283;-69
2023/10/10 09:09:33;;;;;;;7.18;2.05;;;;;;;20.77;100.00;96844.56;5034406;28;20199;-69
2023/10/10 09:12:00;;;;;;;9.98;2.28;;;;;;;20.78;100.00;96840.84;5035928;28;20228;-70
2023/10/10 09:14:40;;;;;;;7.30;2.63;;;;;;;21.06;100.00;96841.91;5036419;28;20209;-70
2023/10/10 09:17:08;;;;;;;7.15;2.22;;;;;;;21.03;100.00;96845.03;5037015;28;20213;-70
2023/10/10 09:19:40;;;;;;;13.48;3.17;;;;;;;21.17;100.00;96843.81;5034337;28;20228;-70
2023/10/10 09:22:12;;;;;;;4.72;2.20;;;;;;;21.14;100.00;96849.59;5036722;28;20282;-71
2023/10/10 09:24:41;;;;;;;8.85;2.40;;;;;;;21.05;100.00;96841.09;5038205;28;20912;-70
2023/10/10 09:27:21;;;;;;;7.70;3.47;;;;;;;21.33;100.00;96845.84;5038458;28;20227;-70
2023/10/10 09:29:54;;;;;;;11.57;2.35;;;;;;;21.65;100.00;96826.56;5036897;28;20213;-70
2023/10/10 09:32:27;;;;;;;5.20;2.53;;;;;;;21.73;100.00;96834.31;5038514;28;20236;-70
2023/10/10 09:34:57;;;;;;;5.22;1.67;;;;;;;21.88;100.00;96831.97;5037178;28;20201;-71
2023/10/10 09:37:35;;;;;;;7.97;1.67;;;;;;;21.99;100.00;96828.47;5037075;28;20323;-70
2023/10/10 09:40:15;;;;;;;9.05;2.30;;;;;;;21.95;100.00;96832.69;5036292;28;20225;-70
2023/10/10 09:43:03;;;;;;;10.43;1.95;;;;;;;22.13;100.00;96826.16;5036735;28;20644;-70
2023/10/10 09:48:28;;;;;;;5.50;2.60;;;;;;;22.32;100.00;96824.97;5035387;28;20387;-70
2023/10/10 09:51:08;;;;;;;9.88;3.75;;;;;;;22.27;100.00;96830.25;5036969;28;20204;-70
2023/10/10 09:53:39;;;;;;;9.13;2.10;;;;;;;22.48;100.00;96826.13;5036142;28;20407;-71
2023/10/10 09:56:09;;;;;;;6.20;1.83;;;;;;;22.61;100.00;96818.63;5036103;28;20205;-71
2023/10/10 09:58:42;;;;;;;6.03;1.63;;;;;;;22.36;100.00;96820.78;5035702;28;20228;-70
2023/10/10 10:01:18;;;;;;;5.38;2.47;;;;;;;22.75;100.00;96820.81;5034909;28;20671;-70
2023/10/10 10:03:59;;;;;;;11.25;2.38;;;;;;;23.19;97.69;96813.88;5036453;28;20217;-70
2023/10/10 10:06:41;;;;;;;7.90;2.45;;;;;;;23.24;98.20;96820.16;5038086;28;20208;-70
2023/10/10 10:09:45;;;;;;;4.30;1.60;;;;;;;23.20;93.72;96823.59;5036825;28;20201;-69
2023/10/10 10:12:31;;;;;;;4.45;2.00;;;;;;;23.19;96.61;96820.06;5037334;28;20601;-70
2023/10/10 10:15:12;;;;;;;7.47;2.35;;;;;;;23.15;95.84;96820.81;5037433;28;20915;-70
2023/10/10 10:17:47;;;;;;;10.82;1.63;;;;;;;23.04;95.43;96819.81;5035773;28;20224;-70
2023/10/10 10:20:23;;;;;;;12.68;2.17;;;;;;;23.23;95.83;96825.78;5035424;28;20282;-70
2023/10/10 10:22:53;;;;;;;3.42;1.27;;;;;;;23.25;93.37;96821.81;5037194;28;20255;-69
2023/10/10 10:25:25;;;;;;;8.07;1.88;;;;;;;23.61;92.00;96830.28;5037210;28;20765;-70
2023/10/10 10:28:00;;;;;;;6.30;1.63;;;;;;;23.58;90.89;96829.94;5036430;28;20205;-70
2023/10/10 10:30:46;;;;;;;14.07;2.28;;;;;;;23.33;92.33;96829.47;5036788;28;20736;-70
2023/10/10 10:33:13;;;;;;;6.22;1.60;;;;;;;23.53;94.87;96829.84;5035213;28;20223;-70
2023/10/10 10:36:14;;;;;;;8.25;1.95;;;;;;;23.84;90.69;96830.16;5035976;28;21041;-70
2023/10/10 10:39:17;;;;;;;9.75;1.58;;;;;;;23.83;92.19;96825.81;5034855;28;20248;-69
2023/10/10 10:41:42;;;;;;;8.23;1.75;;;;;;;24.05;90.42;96834.78;5034988;28;20995;-70
2023/10/10 10:44:12;;;;;;;7.22;2.03;;;;;;;23.71;89.47;96833.16;5035334;28;20197;-69
2023/10/10 10:46:41;;;;;;;13.27;2.55;;;;;;;23.98;89.32;96828.75;5034564;28;20220;-70
2023/10/10 10:49:09;;;;;;;5.03;1.50;;;;;;;24.16;87.78;96825.78;5035481;28;20292;-69
2023/10/10 10:51:42;;;;;;;5.10;2.10;;;;;;;23.84;88.76;96815.88;5035227;28;20303;-69
2023/10/10 10:54:10;;;;;;;5.60;1.30;;;;;;;24.14;87.25;96828.72;5035269;28;20316;-69
2023/10/10 10:56:38;;;;;;;6.28;2.28;;;;;;;24.31;86.82;96817.94;5034095;28;20769;-69
2023/10/10 10:59:20;;;;;;;9.63;1.90;;;;;;;24.52;85.96;96811.81;5033203;28;20614;-69
2023/10/10 11:01:51;;;;;;;7.88;2.05;;;;;;;24.23;86.31;96811.09;5034692;28;20324;-70
2023/10/10 11:04:40;;;;;;;10.93;1.55;;;;;;;24.40;86.46;96816.47;5037332;28;20213;-70
2023/10/10 11:07:07;;;;;;;7.65;1.65;;;;;;;24.44;84.82;96807.66;5034875;28;20226;-69
2023/10/10 11:09:37;;;;;;;6.72;1.67;;;;;;;24.41;81.67;96812.72;5034722;28;20198;-69
2023/10/10 11:12:06;;;;;;;6.65;1.20;;;;;;;24.75;83.23;96805.09;5035946;28;20278;-69
2023/10/10 11:14:34;;;;;;;9.23;1.45;;;;;;;24.44;81.53;96812.22;5025293;28;20198;-69
2023/10/10 11:17:01;;;;;;;8.38;1.52;;;;;;;24.45;85.42;96800.38;5031552;28;20203;-69
2023/10/10 11:19:42;;;;;;;5.47;1.58;;;;;;;24.28;89.10;96802.28;5032831;28;20851;-69
2023/10/10 11:22:17;;;;;;;2.42;0.90;;;;;;;24.56;85.55;96799.47;5034058;28;20316;-69
2023/10/10 11:24:48;;;;;;;3.08;1.50;;;;;;;24.46;83.81;96796.63;5032875;28;20211;-69
2023/10/10 11:27:21;;;;;;;3.97;1.90;;;;;;;24.34;85.66;96795.91;5033520;28;20728;-69
2023/10/10 11:29:50;;;;;;;6.90;2.45;;;;;;;24.23;85.87;96791.44;5032784;28;20207;-69
2023/10/10 11:32:23;;;;;;;1.85;1.23;;;;;;;24.55;84.24;96787.03;5032046;28;20225;-69
2023/10/10 11:34:51;;;;;;;6.43;1.70;;;;;;;24.67;84.07;96789.34;5033400;28;21222;-69
2023/10/10 11:37:21;;;;;;;5.57;1.98;;;;;;;24.80;85.82;96783.56;5033556;28;20205;-69
2023/10/10 11:39:52;;;;;;;5.10;1.70;;;;;;;24.81;83.13;96793.31;5033767;28;20232;-69
2023/10/10 11:42:33;;;;;;;5.97;1.40;;;;;;;24.93;81.00;96785.88;5032403;28;20227;-69
2023/10/10 11:45:03;;;;;;;6.85;1.52;;;;;;;24.85;81.41;96778.25;5032171;28;20200;-69
2023/10/10 11:47:30;;;;;;;3.67;1.67;;;;;;;24.73;80.66;96779.44;5031089;28;20212;-69
2023/10/10 11:50:00;;;;;;;7.47;1.50;;;;;;;24.46;84.46;96773.19;5031233;28;20258;-69
2023/10/10 11:52:28;;;;;;;4.03;1.70;;;;;;;24.44;80.94;96769.94;5033575;28;20626;-69
2023/10/10 11:54:58;;;;;;;3.80;1.67;;;;;;;24.45;83.49;96759.97;5033162;28;20216;-69
2023/10/10 11:57:28;;;;;;;5.63;1.58;;;;;;;24.58;81.39;96768.50;5032344;28;20262;-69
2023/10/10 11:59:58;;;;;;;3.10;1.10;;;;;;;24.69;80.01;96762.13;5033640;28;20654;-69
2023/10/10 12:02:29;;;;;;;8.75;2.30;;;;;;;24.75;80.13;96756.56;5032231;28;20228;-69
2023/10/10 12:04:56;;;;;;;7.45;1.48;;;;;;;24.95;81.67;96751.41;5033930;28;20209;-69
2023/10/10 12:07:24;;;;;;;4.80;1.60;;;;;;;24.75;80.96;96751.16;5032821;28;20202;-69
2023/10/10 12:09:54;;;;;;;6.30;1.50;;;;;;;24.76;78.14;96746.59;5033986;28;20205;-69
2023/10/10 12:12:23;;;;;;;7.72;1.20;;;;;;;24.77;79.50;96743.66;5033411;28;20229;-69
2023/10/10 12:14:51;;;;;;;5.80;1.52;;;;;;;24.84;78.49;96746.94;5033971;28;20266;-69
2023/10/10 12:17:20;;;;;;;9.90;2.42;;;;;;;25.16;78.52;96737.06;5032758;28;20691;-69
2023/10/10 12:19:47;;;;;;;8.68;1.63;;;;;;;25.08;79.99;96734.84;5032422;28;20221;-69
2023/10/10 12:22:15;;;;;;;6.30;1.45;;;;;;;24.92;81.20;96733.00;5033222;28;20593;-69
2023/10/10 12:24:42;;;;;;;6.50;1.73;;;;;;;24.87;82.22;96735.69;5034727;28;20638;-69
2023/10/10 12:27:09;;;;;;;8.90;2.22;;;;;;;24.93;74.70;96736.53;5037445;28;20201;-69
2023/10/10 12:29:39;;;;;;;3.10;1.58;;;;;;;24.97;74.22;96733.06;5038319;28;20292;-69
2023/10/10 12:32:15;;;;;;;13.15;2.28;;;;;;;24.85;71.41;96737.00;5036980;28;20228;-69
2023/10/10 12:34:43;;;;;;;7.68;1.75;;;;;;;25.32;73.08;96736.16;5035851;28;20200;-69
2023/10/10 12:37:10;;;;;;;6.63;1.20;;;;;;;24.87;76.27;96732.16;5039591;28;20231;-69
2023/10/10 12:39:37;;;;;;;5.07;1.50;;;;;;;24.95;76.58;96735.22;5035958;28;20589;-69
2023/10/10 12:42:04;;;;;;;3.45;1.17;;;;;;;24.78;76.95;96733.66;5035826;28;20221;-69
2023/10/10 12:44:34;;;;;;;4.97;2.13;;;;;;;24.98;73.00;96734.69;5041761;28;20205;-69
2023/10/10 12:47:06;;;;;;;3.50;1.20;;;;;;;24.98;71.33;96725.81;5044440;28;20209;-68
2023/10/10 12:49:36;;;;;;;2.85;1.30;;;;;;;24.98;72.22;96721.22;5041249;28;20251;-68
2023/10/10 12:52:11;;;;;;;2.95;1.42;;;;;;;25.22;71.99;96719.88;5041863;28;20221;-68
2023/10/10 12:54:37;;;;;;;5.78;1.27;;;;;;;25.24;70.42;96717.72;5041688;28;20311;-68
2023/10/10 12:57:13;;;;;;;5.78;1.80;;;;;;;25.23;67.60;96710.72;5042133;28;20205;-68
2023/10/10 12:59:39;;;;;;;5.28;1.40;;;;;;;25.11;68.33;96712.75;5041685;28;20213;-68
2023/10/10 13:02:08;;;;;;;10.38;1.08;;;;;;;24.95;70.48;96710.13;5039766;28;20236;-69
2023/10/10 13:04:37;;;;;;;5.40;1.10;;;;;;;25.19;70.28;96701.50;5038775;28;20491;-69
2023/10/10 13:07:04;;;;;;;6.30;1.60;;;;;;;25.16;68.71;96702.00;5038891;28;20263;-68
2023/10/10 13:09:31;;;;;;;4.65;0.90;;;;;;;25.00;66.87;96702.06;5039106;28;20201;-68
2023/10/10 13:11:58;;;;;;;9.10;1.73;;;;;;;25.25;64.51;96706.69;5040622;28;20225;-68
2023/10/10 13:14:29;;;;;;;5.47;1.88;;;;;;;25.34;65.16;96704.31;5039926;28;20211;-68
2023/10/10 13:17:13;;;;;;;10.75;1.58;;;;;;;25.23;63.78;96703.41;5038635;28;20208;-68
2023/10/10 13:19:41;;;;;;;7.78;1.08;;;;;;;25.46;62.21;96702.28;5038744;28;20729;-68
2023/10/10 13:22:20;;;;;;;5.28;1.35;;;;;;;25.79;62.73;96699.28;5038047;28;20226;-68
2023/10/10 13:24:47;;;;;;;8.93;1.70;;;;;;;25.67;62.25;96701.34;5039933;28;20523;-68
2023/10/10 13:27:13;;;;;;;7.05;1.45;;;;;;;25.49;63.35;96693.66;5039806;28;20221;-68
2023/10/10 13:29:40;;;;;;;5.38;1.92;;;;;;;25.42;62.38;96693.88;5038118;28;20478;-68
2023/10/10 13:32:06;;;;;;;4.85;1.35;;;;;;;25.61;64.71;96691.56;5039140;28;20221;-68
2023/10/10 13:34:37;;;;;;;5.68;2.33;;;;;;;25.68;66.96;96697.56;5036388;28;20275;-68